createdAt,value
2018-02-01T00:00:40.490Z,2.6
2018-02-01T00:01:42.915Z,2.6
2018-02-01T00:02:45.648Z,2.6
2018-02-01T00:03:48.072Z,2.6
2018-02-01T00:04:50.493Z,2.6
2018-02-01T00:05:52.914Z,2.6
2018-02-01T00:06:55.618Z,2.6
2018-02-01T00:07:58.045Z,2.6
2018-02-01T00:09:00.470Z,2.6
2018-02-01T00:10:03.175Z,2.7
2018-02-01T00:11:05.592Z,2.6
2018-02-01T00:12:08.289Z,2.6
2018-02-01T00:13:10.723Z,2.6
2018-02-01T00:14:13.152Z,2.6
2018-02-01T00:15:15.574Z,2.6
2018-02-01T00:16:18.000Z,2.6
2018-02-01T00:17:20.429Z,2.6
2018-02-01T00:18:23.141Z,2.6
2018-02-01T00:19:25.572Z,2.6
2018-02-01T00:20:28.286Z,2.6
2018-02-01T00:21:30.703Z,2.5
2018-02-01T00:22:33.132Z,2.5
2018-02-01T00:23:35.554Z,2.5
2018-02-01T00:24:37.974Z,2.5
2018-02-01T00:25:40.408Z,2.5
2018-02-01T00:26:42.835Z,2.5
2018-02-01T00:27:45.264Z,2.5
2018-02-01T00:28:47.695Z,2.5
2018-02-01T00:29:50.126Z,2.5
2018-02-01T00:30:52.546Z,2.5
2018-02-01T00:31:54.960Z,2.5
2018-02-01T00:32:57.384Z,2.5
2018-02-01T00:33:59.808Z,2.5
2018-02-01T00:35:02.227Z,2.5
2018-02-01T00:36:04.649Z,2.5
2018-02-01T00:37:07.357Z,2.5
2018-02-01T00:38:09.786Z,2.5
2018-02-01T00:39:12.535Z,2.5
2018-02-01T00:40:14.947Z,2.5
2018-02-01T00:41:17.375Z,2.4
2018-02-01T00:42:19.801Z,2.4
2018-02-01T00:43:22.225Z,2.4
2018-02-01T00:44:24.668Z,2.4
2018-02-01T00:45:27.088Z,2.4
2018-02-01T00:46:29.499Z,2.4
2018-02-01T00:47:31.933Z,2.4
2018-02-01T00:48:34.361Z,2.4
2018-02-01T00:49:36.777Z,2.3
2018-02-01T00:50:39.207Z,2.3
2018-02-01T00:51:41.630Z,2.3
2018-02-01T00:52:44.049Z,2.3
2018-02-01T00:53:46.487Z,2.3
2018-02-01T00:54:48.906Z,2.3
2018-02-01T00:55:51.623Z,2.3
2018-02-01T00:56:54.044Z,2.3
2018-02-01T00:57:56.466Z,2.3
2018-02-01T00:58:58.891Z,2.2
2018-02-01T01:00:01.312Z,2.2
2018-02-01T01:01:03.745Z,2.3
2018-02-01T01:02:06.170Z,2.2
2018-02-01T01:03:08.590Z,2.2
2018-02-01T01:04:11.302Z,2.2
2018-02-01T01:05:13.738Z,2.2
2018-02-01T01:06:16.162Z,2.2
2018-02-01T01:07:18.586Z,2.2
2018-02-01T01:08:21.012Z,2.2
2018-02-01T01:09:23.430Z,2.2
2018-02-01T01:10:26.172Z,2.2
2018-02-01T01:11:28.886Z,2.2
2018-02-01T01:12:31.304Z,2.2
2018-02-01T01:13:33.731Z,2.2
2018-02-01T01:14:36.163Z,2.2
2018-02-01T01:15:38.591Z,2.2
2018-02-01T01:16:41.027Z,2.2
2018-02-01T01:17:43.437Z,2.2
2018-02-01T01:18:45.864Z,2.1
2018-02-01T01:19:48.307Z,2.1
2018-02-01T01:20:50.729Z,2.1
2018-02-01T01:21:53.155Z,2.1
2018-02-01T01:22:55.578Z,2
2018-02-01T01:23:57.999Z,2
2018-02-01T01:25:00.728Z,2
2018-02-01T01:26:03.152Z,2.1
2018-02-01T01:27:05.575Z,2
2018-02-01T01:28:07.999Z,2
2018-02-01T01:29:10.412Z,2
2018-02-01T01:30:12.830Z,2
2018-02-01T01:31:15.253Z,2
2018-02-01T01:32:17.684Z,1.9
2018-02-01T01:33:20.109Z,1.9
2018-02-01T01:34:22.532Z,1.9
2018-02-01T01:35:24.958Z,1.9
2018-02-01T01:36:27.387Z,1.8
2018-02-01T01:37:29.813Z,1.8
2018-02-01T01:38:32.532Z,1.8
2018-02-01T01:39:34.961Z,1.8
2018-02-01T01:40:37.378Z,1.8
2018-02-01T01:41:39.806Z,1.8
2018-02-01T01:42:42.237Z,1.8
2018-02-01T01:43:44.654Z,1.8
2018-02-01T01:44:47.368Z,1.8
2018-02-01T01:45:49.787Z,1.8
2018-02-01T01:46:52.214Z,1.8
2018-02-01T01:47:54.636Z,1.8
2018-02-01T01:48:57.065Z,1.8
2018-02-01T01:49:59.483Z,1.7
2018-02-01T01:51:01.921Z,1.7
2018-02-01T01:52:04.647Z,1.7
2018-02-01T01:53:07.065Z,1.7
2018-02-01T01:54:09.779Z,1.6
2018-02-01T01:55:12.203Z,1.7
2018-02-01T01:56:14.628Z,1.6
2018-02-01T01:57:17.330Z,1.6
2018-02-01T01:58:19.753Z,1.6
2018-02-01T01:59:22.183Z,1.6
2018-02-01T02:00:24.607Z,1.6
2018-02-01T02:01:27.038Z,1.6
2018-02-01T02:02:29.467Z,1.6
2018-02-01T02:03:31.889Z,1.6
2018-02-01T02:04:34.324Z,1.6
2018-02-01T02:05:36.743Z,1.6
2018-02-01T02:06:39.164Z,1.6
2018-02-01T02:07:41.588Z,1.6
2018-02-01T02:08:44.015Z,1.6
2018-02-01T02:09:46.432Z,1.6
2018-02-01T02:10:48.858Z,1.6
2018-02-01T02:11:51.288Z,1.6
2018-02-01T02:12:53.991Z,1.6
2018-02-01T02:13:56.423Z,1.6
2018-02-01T02:14:58.843Z,1.5
2018-02-01T02:16:01.269Z,1.5
2018-02-01T02:17:03.695Z,1.5
2018-02-01T02:18:06.118Z,1.5
2018-02-01T02:19:08.547Z,1.5
2018-02-01T02:20:10.969Z,1.5
2018-02-01T02:21:13.393Z,1.5
2018-02-01T02:22:15.812Z,1.5
2018-02-01T02:23:18.234Z,1.5
2018-02-01T02:24:20.653Z,1.5
2018-02-01T02:25:23.070Z,1.5
2018-02-01T02:26:25.784Z,1.5
2018-02-01T02:27:28.215Z,1.5
2018-02-01T02:28:30.622Z,1.4
2018-02-01T02:29:33.054Z,1.4
2018-02-01T02:30:35.778Z,1.4
2018-02-01T02:31:38.218Z,1.4
2018-02-01T02:32:40.639Z,1.4
2018-02-01T02:33:43.064Z,1.4
2018-02-01T02:34:45.762Z,1.4
2018-02-01T02:35:48.194Z,1.4
2018-02-01T02:36:50.625Z,1.4
2018-02-01T02:37:53.330Z,1.3
2018-02-01T02:38:56.040Z,1.3
2018-02-01T02:39:58.464Z,1.3
2018-02-01T02:41:01.170Z,1.3
2018-02-01T02:42:03.592Z,1.3
2018-02-01T02:43:06.008Z,1.3
2018-02-01T02:44:08.431Z,1.3
2018-02-01T02:45:11.435Z,1.3
2018-02-01T02:46:13.860Z,1.2
2018-02-01T02:47:16.283Z,1.3
2018-02-01T02:48:18.713Z,1.3
2018-02-01T02:49:21.417Z,1.2
2018-02-01T02:50:24.167Z,1.2
2018-02-01T02:51:26.587Z,1.2
2018-02-01T02:52:29.581Z,1.2
2018-02-01T02:53:32.008Z,1.2
2018-02-01T02:54:34.997Z,1.2
2018-02-01T02:55:37.427Z,1.2
2018-02-01T02:56:39.848Z,1.2
2018-02-01T02:57:42.283Z,1.2
2018-02-01T02:58:44.707Z,1.2
2018-02-01T02:59:47.114Z,1.2
2018-02-01T03:00:49.543Z,1.2
2018-02-01T03:01:51.967Z,1.2
2018-02-01T03:02:54.670Z,1.2
2018-02-01T03:03:57.103Z,1.2
2018-02-01T03:04:59.518Z,1.2
2018-02-01T03:06:01.938Z,1.2
2018-02-01T03:07:04.663Z,1.2
2018-02-01T03:08:07.080Z,1.2
2018-02-01T03:09:09.501Z,1.1
2018-02-01T03:10:11.924Z,1.2
2018-02-01T03:11:14.339Z,1.2
2018-02-01T03:12:16.770Z,1.2
2018-02-01T03:13:19.201Z,1.2
2018-02-01T03:14:21.628Z,1.2
2018-02-01T03:15:24.057Z,1.1
2018-02-01T03:16:26.475Z,1.1
2018-02-01T03:17:28.898Z,1.1
2018-02-01T03:18:31.338Z,1.1
2018-02-01T03:19:33.757Z,1.1
2018-02-01T03:20:36.175Z,1.1
2018-02-01T03:21:39.162Z,1.1
2018-02-01T03:22:41.599Z,1.1
2018-02-01T03:23:44.321Z,1.1
2018-02-01T03:24:47.035Z,1.1
2018-02-01T03:25:49.768Z,1.1
2018-02-01T03:26:52.193Z,1
2018-02-01T03:27:54.615Z,1.1
2018-02-01T03:28:57.033Z,1.1
2018-02-01T03:29:59.465Z,1.1
2018-02-01T03:31:01.900Z,1.1
2018-02-01T03:32:04.317Z,1
2018-02-01T03:33:07.031Z,1
2018-02-01T03:34:09.449Z,1
2018-02-01T03:35:11.876Z,1
2018-02-01T03:36:14.642Z,1
2018-02-01T03:37:17.062Z,1
2018-02-01T03:38:19.486Z,1
2018-02-01T03:39:22.194Z,1
2018-02-01T03:40:24.617Z,1
2018-02-01T03:41:27.053Z,1
2018-02-01T03:42:29.465Z,0.9
2018-02-01T03:43:31.890Z,1
2018-02-01T03:44:34.330Z,1
2018-02-01T03:45:36.744Z,0.9
2018-02-01T03:46:39.450Z,0.9
2018-02-01T03:47:41.874Z,0.9
2018-02-01T03:48:44.292Z,1
2018-02-01T03:49:46.726Z,0.9
2018-02-01T03:50:49.427Z,0.9
2018-02-01T03:51:51.836Z,0.9
2018-02-01T03:52:54.264Z,1
2018-02-01T03:53:56.689Z,0.9
2018-02-01T03:54:59.114Z,0.9
2018-02-01T03:56:01.830Z,0.9
2018-02-01T03:57:04.249Z,0.9
2018-02-01T03:58:06.959Z,0.9
2018-02-01T03:59:09.373Z,0.9
2018-02-01T04:00:11.799Z,0.9
2018-02-01T04:01:14.217Z,0.9
2018-02-01T04:02:16.639Z,0.9
2018-02-01T04:03:19.068Z,0.9
2018-02-01T04:04:21.488Z,0.8
2018-02-01T04:05:23.913Z,0.8
2018-02-01T04:06:26.638Z,0.8
2018-02-01T04:07:29.055Z,0.8
2018-02-01T04:08:31.772Z,0.8
2018-02-01T04:09:34.197Z,0.8
2018-02-01T04:10:36.616Z,0.8
2018-02-01T04:11:39.044Z,0.7
2018-02-01T04:12:41.469Z,0.7
2018-02-01T04:13:43.888Z,0.7
2018-02-01T04:14:46.313Z,0.7
2018-02-01T04:15:48.719Z,0.7
2018-02-01T04:16:51.429Z,0.7
2018-02-01T04:17:53.857Z,0.7
2018-02-01T04:18:56.281Z,0.7
2018-02-01T04:19:58.704Z,0.7
2018-02-01T04:21:01.122Z,0.6
2018-02-01T04:22:03.561Z,0.6
2018-02-01T04:23:05.972Z,0.6
2018-02-01T04:24:08.687Z,0.6
2018-02-01T04:25:11.393Z,0.6
2018-02-01T04:26:13.818Z,0.6
2018-02-01T04:27:16.244Z,0.7
2018-02-01T04:28:18.663Z,0.7
2018-02-01T04:29:21.079Z,0.6
2018-02-01T04:30:23.798Z,0.6
2018-02-01T04:31:26.219Z,0.6
2018-02-01T04:32:28.918Z,0.6
2018-02-01T04:33:31.342Z,0.6
2018-02-01T04:34:33.794Z,0.6
2018-02-01T04:35:36.211Z,0.6
2018-02-01T04:36:38.642Z,0.6
2018-02-01T04:37:41.345Z,0.6
2018-02-01T04:38:43.765Z,0.6
2018-02-01T04:39:46.195Z,0.6
2018-02-01T04:40:48.910Z,0.6
2018-02-01T04:41:51.323Z,0.6
2018-02-01T04:42:53.747Z,0.6
2018-02-01T04:43:56.170Z,0.6
2018-02-01T04:44:58.588Z,0.6
2018-02-01T04:46:01.015Z,0.6
2018-02-01T04:47:03.439Z,0.6
2018-02-01T04:48:05.866Z,0.6
2018-02-01T04:49:08.308Z,0.6
2018-02-01T04:50:10.723Z,0.6
2018-02-01T04:51:13.152Z,0.6
2018-02-01T04:52:15.573Z,0.6
2018-02-01T04:53:17.997Z,0.6
2018-02-01T04:54:20.422Z,0.6
2018-02-01T04:55:22.897Z,0.6
2018-02-01T04:56:25.310Z,0.6
2018-02-01T04:57:27.731Z,0.6
2018-02-01T04:58:30.160Z,0.6
2018-02-01T04:59:32.586Z,0.6
2018-02-01T05:00:35.012Z,0.5
2018-02-01T05:01:37.440Z,0.5
2018-02-01T05:02:39.856Z,0.5
2018-02-01T05:03:42.293Z,0.5
2018-02-01T05:04:44.713Z,0.5
2018-02-01T05:05:47.127Z,0.5
2018-02-01T05:06:49.843Z,0.5
2018-02-01T05:07:52.262Z,0.5
2018-02-01T05:08:54.695Z,0.5
2018-02-01T05:09:57.120Z,0.5
2018-02-01T05:10:59.828Z,0.5
2018-02-01T05:12:02.531Z,0.5
2018-02-01T05:13:05.257Z,0.5
2018-02-01T05:14:07.672Z,0.5
2018-02-01T05:15:10.096Z,0.5
2018-02-01T05:16:12.519Z,0.5
2018-02-01T05:17:14.945Z,0.4
2018-02-01T05:18:17.370Z,0.4
2018-02-01T05:19:19.795Z,0.4
2018-02-01T05:20:22.216Z,0.4
2018-02-01T05:21:24.640Z,0.5
2018-02-01T05:22:27.061Z,0.5
2018-02-01T05:23:29.486Z,0.4
2018-02-01T05:24:31.898Z,0.5
2018-02-01T05:25:34.323Z,0.4
2018-02-01T05:26:36.746Z,0.4
2018-02-01T05:27:39.161Z,0.4
2018-02-01T05:28:41.597Z,0.4
2018-02-01T05:29:44.302Z,0.4
2018-02-01T05:30:46.727Z,0.4
2018-02-01T05:31:49.160Z,0.4
2018-02-01T05:32:51.583Z,0.4
2018-02-01T05:33:54.286Z,0.4
2018-02-01T05:34:56.712Z,0.4
2018-02-01T05:35:59.127Z,0.4
2018-02-01T05:37:01.551Z,0.4
2018-02-01T05:38:04.127Z,0.4
2018-02-01T05:39:06.536Z,0.4
2018-02-01T05:40:08.965Z,0.3
2018-02-01T05:41:11.394Z,0.3
2018-02-01T05:42:13.818Z,0.4
2018-02-01T05:43:16.527Z,0.4
2018-02-01T05:44:19.515Z,0.4
2018-02-01T05:45:21.938Z,0.4
2018-02-01T05:46:24.366Z,0.4
2018-02-01T05:47:26.784Z,0.4
2018-02-01T05:48:29.192Z,0.3
2018-02-01T05:49:31.901Z,0.4
2018-02-01T05:50:34.327Z,0.4
2018-02-01T05:51:36.745Z,0.3
2018-02-01T05:52:39.163Z,0.4
2018-02-01T05:53:41.596Z,0.4
2018-02-01T05:54:44.019Z,0.4
2018-02-01T05:55:46.431Z,0.4
2018-02-01T05:56:48.860Z,0.4
2018-02-01T05:57:51.288Z,0.4
2018-02-01T05:58:53.708Z,0.4
2018-02-01T05:59:56.134Z,0.4
2018-02-01T06:00:58.835Z,0.4
2018-02-01T06:02:01.546Z,0.4
2018-02-01T06:03:04.016Z,0.4
2018-02-01T06:04:06.761Z,0.4
2018-02-01T06:05:09.184Z,0.4
2018-02-01T06:06:12.174Z,0.4
2018-02-01T06:07:14.594Z,0.4
2018-02-01T06:08:17.013Z,0.4
2018-02-01T06:09:19.441Z,0.4
2018-02-01T06:10:21.875Z,0.4
2018-02-01T06:11:24.300Z,0.4
2018-02-01T06:12:26.730Z,0.4
2018-02-01T06:13:29.149Z,0.5
2018-02-01T06:14:31.869Z,0.4
2018-02-01T06:15:34.287Z,0.4
2018-02-01T06:16:36.988Z,0.4
2018-02-01T06:17:39.405Z,0.5
2018-02-01T06:18:41.823Z,0.4
2018-02-01T06:19:44.531Z,0.4
2018-02-01T06:20:46.948Z,0.4
2018-02-01T06:21:49.375Z,0.4
2018-02-01T06:22:51.804Z,0.4
2018-02-01T06:23:54.224Z,0.4
2018-02-01T06:24:56.654Z,0.4
2018-02-01T06:25:59.358Z,0.4
2018-02-01T06:27:01.766Z,0.4
2018-02-01T06:28:04.492Z,0.4
2018-02-01T06:29:07.202Z,0.4
2018-02-01T06:30:09.905Z,0.4
2018-02-01T06:31:12.330Z,0.4
2018-02-01T06:32:14.759Z,0.4
2018-02-01T06:33:17.181Z,0.4
2018-02-01T06:34:19.613Z,0.4
2018-02-01T06:35:22.027Z,0.4
2018-02-01T06:36:24.460Z,0.4
2018-02-01T06:37:26.881Z,0.4
2018-02-01T06:38:29.290Z,0.4
2018-02-01T06:39:31.723Z,0.4
2018-02-01T06:40:34.151Z,0.4
2018-02-01T06:41:36.577Z,0.4
2018-02-01T06:42:39.276Z,0.3
2018-02-01T06:43:41.695Z,0.4
2018-02-01T06:44:44.400Z,0.4
2018-02-01T06:45:47.152Z,0.4
2018-02-01T06:46:49.569Z,0.4
2018-02-01T06:47:51.989Z,0.4
2018-02-01T06:48:54.694Z,0.4
2018-02-01T06:49:57.118Z,0.4
2018-02-01T06:50:59.541Z,0.4
2018-02-01T06:52:01.966Z,0.4
2018-02-01T06:53:04.386Z,0.4
2018-02-01T06:54:06.816Z,0.4
2018-02-01T06:55:09.252Z,0.4
2018-02-01T06:56:11.961Z,0.3
2018-02-01T06:57:14.385Z,0.4
2018-02-01T06:58:16.815Z,0.4
2018-02-01T06:59:19.240Z,0.4
2018-02-01T07:00:21.662Z,0.4
2018-02-01T07:01:24.369Z,0.4
2018-02-01T07:02:26.775Z,0.4
2018-02-01T07:03:29.199Z,0.4
2018-02-01T07:04:31.628Z,0.4
2018-02-01T07:05:34.043Z,0.4
2018-02-01T07:06:36.475Z,0.4
2018-02-01T07:07:38.888Z,0.4
2018-02-01T07:08:41.301Z,0.4
2018-02-01T07:09:43.740Z,0.4
2018-02-01T07:10:46.153Z,0.4
2018-02-01T07:11:48.575Z,0.4
2018-02-01T07:12:51.006Z,0.4
2018-02-01T07:13:53.430Z,0.4
2018-02-01T07:14:55.858Z,0.4
2018-02-01T07:15:58.295Z,0.4
2018-02-01T07:17:00.703Z,0.4
2018-02-01T07:18:03.126Z,0.5
2018-02-01T07:19:05.555Z,0.5
2018-02-01T07:20:07.982Z,0.5
2018-02-01T07:21:10.398Z,0.5
2018-02-01T07:22:12.826Z,0.5
2018-02-01T07:23:15.535Z,0.5
2018-02-01T07:24:17.959Z,0.4
2018-02-01T07:25:20.663Z,0.4
2018-02-01T07:26:23.375Z,0.5
2018-02-01T07:27:25.783Z,0.5
2018-02-01T07:28:28.221Z,0.5
2018-02-01T07:29:30.632Z,0.5
2018-02-01T07:30:33.058Z,0.6
2018-02-01T07:31:35.496Z,0.6
2018-02-01T07:32:37.908Z,0.6
2018-02-01T07:33:40.330Z,0.6
2018-02-01T07:34:42.766Z,0.6
2018-02-01T07:35:45.179Z,0.7
2018-02-01T07:36:47.885Z,0.7
2018-02-01T07:37:50.583Z,0.7
2018-02-01T07:38:53.010Z,0.8
2018-02-01T07:39:55.436Z,0.8
2018-02-01T07:40:57.898Z,0.8
2018-02-01T07:42:00.307Z,0.9
2018-02-01T07:43:03.022Z,0.9
2018-02-01T07:44:05.438Z,0.8
2018-02-01T07:45:07.862Z,0.9
2018-02-01T07:46:10.280Z,0.9
2018-02-01T07:47:12.712Z,0.9
2018-02-01T07:48:15.136Z,0.9
2018-02-01T07:49:17.553Z,1
2018-02-01T07:50:19.985Z,1
2018-02-01T07:51:22.437Z,1
2018-02-01T07:52:25.117Z,1
2018-02-01T07:53:27.803Z,1.1
2018-02-01T07:54:30.536Z,1.1
2018-02-01T07:55:32.955Z,1.2
2018-02-01T07:56:35.374Z,1.1
2018-02-01T07:57:37.807Z,1.1
2018-02-01T07:58:40.228Z,1.2
2018-02-01T07:59:42.945Z,1.2
2018-02-01T08:00:45.887Z,1.2
2018-02-01T08:01:48.966Z,1.3
2018-02-01T08:02:51.394Z,1.3
2018-02-01T08:03:54.107Z,1.3
2018-02-01T08:04:56.530Z,1.3
2018-02-01T08:05:58.954Z,1.3
2018-02-01T08:07:01.362Z,1.3
2018-02-01T08:08:03.801Z,1.3
2018-02-01T08:09:06.230Z,1.3
2018-02-01T08:10:08.652Z,1.3
2018-02-01T08:11:11.077Z,1.2
2018-02-01T08:12:13.510Z,1.2
2018-02-01T08:13:15.928Z,1.2
2018-02-01T08:14:18.359Z,1.3
2018-02-01T08:15:20.776Z,1.2
2018-02-01T08:16:23.204Z,1.2
2018-02-01T08:17:25.626Z,1.2
2018-02-01T08:18:28.054Z,1.1
2018-02-01T08:19:30.488Z,1.1
2018-02-01T08:20:32.930Z,1.1
2018-02-01T08:21:35.356Z,1.1
2018-02-01T08:22:38.094Z,1.1
2018-02-01T08:23:40.519Z,1.1
2018-02-01T08:24:42.942Z,1.1
2018-02-01T08:25:45.361Z,1.2
2018-02-01T08:26:47.781Z,1.1
2018-02-01T08:27:50.213Z,1.2
2018-02-01T08:28:52.635Z,1.2
2018-02-01T08:29:55.066Z,1.2
2018-02-01T08:30:57.484Z,1.1
2018-02-01T08:31:59.914Z,1.1
2018-02-01T08:33:02.333Z,1.1
2018-02-01T08:34:04.767Z,1.1
2018-02-01T08:35:07.488Z,1.1
2018-02-01T08:36:09.912Z,1.1
2018-02-01T08:37:12.629Z,1.1
2018-02-01T08:38:15.055Z,1.1
2018-02-01T08:39:17.484Z,1.2
2018-02-01T08:40:19.910Z,1.1
2018-02-01T08:41:22.323Z,1.1
2018-02-01T08:42:24.749Z,1.2
2018-02-01T08:43:27.170Z,1.2
2018-02-01T08:44:29.879Z,1.2
2018-02-01T08:45:32.301Z,1.2
2018-02-01T08:46:34.725Z,1.2
2018-02-01T08:47:37.148Z,1.2
2018-02-01T08:48:39.576Z,1.2
2018-02-01T08:49:41.987Z,1.2
2018-02-01T08:50:44.703Z,1.3
2018-02-01T08:51:47.122Z,1.3
2018-02-01T08:52:49.544Z,1.3
2018-02-01T08:53:52.249Z,1.3
2018-02-01T08:54:55.001Z,1.3
2018-02-01T08:55:57.431Z,1.3
2018-02-01T08:56:59.859Z,1.3
2018-02-01T08:58:02.283Z,1.4
2018-02-01T08:59:04.715Z,1.4
2018-02-01T09:00:07.135Z,1.4
2018-02-01T09:01:09.571Z,1.4
2018-02-01T09:02:11.990Z,1.4
2018-02-01T09:03:14.414Z,1.4
2018-02-01T09:04:16.839Z,1.4
2018-02-01T09:05:19.274Z,1.5
2018-02-01T09:06:21.694Z,1.5
2018-02-01T09:07:24.125Z,1.5
2018-02-01T09:08:26.545Z,1.5
2018-02-01T09:09:28.963Z,1.5
2018-02-01T09:10:31.391Z,1.5
2018-02-01T09:11:33.813Z,1.4
2018-02-01T09:12:36.519Z,1.5
2018-02-01T09:13:38.941Z,1.5
2018-02-01T09:14:41.363Z,1.5
2018-02-01T09:15:43.797Z,1.6
2018-02-01T09:16:46.218Z,1.6
2018-02-01T09:17:48.931Z,1.5
2018-02-01T09:18:51.348Z,1.5
2018-02-01T09:19:53.770Z,1.6
2018-02-01T09:20:56.190Z,1.6
2018-02-01T09:21:58.613Z,1.6
2018-02-01T09:23:01.045Z,1.6
2018-02-01T09:24:03.470Z,1.6
2018-02-01T09:25:05.879Z,1.6
2018-02-01T09:26:08.600Z,1.6
2018-02-01T09:27:11.303Z,1.6
2018-02-01T09:28:14.019Z,1.6
2018-02-01T09:29:17.009Z,1.6
2018-02-01T09:30:19.431Z,1.7
2018-02-01T09:31:21.849Z,1.6
2018-02-01T09:32:24.283Z,1.7
2018-02-01T09:33:26.706Z,1.7
2018-02-01T09:34:29.134Z,1.7
2018-02-01T09:35:31.559Z,1.7
2018-02-01T09:36:33.983Z,1.8
2018-02-01T09:37:36.416Z,1.8
2018-02-01T09:38:38.836Z,1.8
2018-02-01T09:39:41.250Z,1.8
2018-02-01T09:40:43.978Z,1.8
2018-02-01T09:41:46.404Z,1.8
2018-02-01T09:42:48.828Z,1.9
2018-02-01T09:43:51.252Z,1.8
2018-02-01T09:44:53.707Z,1.9
2018-02-01T09:45:56.383Z,1.9
2018-02-01T09:46:58.823Z,1.9
2018-02-01T09:48:01.811Z,1.9
2018-02-01T09:49:04.220Z,2
2018-02-01T09:50:06.650Z,2
2018-02-01T09:51:09.082Z,2.1
2018-02-01T09:52:11.784Z,2.1
2018-02-01T09:53:14.210Z,2.1
2018-02-01T09:54:16.636Z,2.2
2018-02-01T09:55:19.060Z,2.2
2018-02-01T09:56:21.490Z,2.2
2018-02-01T09:57:23.910Z,2.3
2018-02-01T09:58:26.326Z,2.2
2018-02-01T09:59:28.751Z,2.2
2018-02-01T10:00:31.177Z,2.3
2018-02-01T10:01:33.601Z,2.3
2018-02-01T10:02:36.031Z,2.3
2018-02-01T10:03:38.445Z,2.3
2018-02-01T10:04:40.871Z,2.3
2018-02-01T10:05:43.591Z,2.3
2018-02-01T10:06:46.011Z,2.3
2018-02-01T10:07:48.435Z,2.4
2018-02-01T10:08:50.863Z,2.4
2018-02-01T10:09:53.283Z,2.4
2018-02-01T10:10:55.720Z,2.4
2018-02-01T10:11:58.144Z,2.5
2018-02-01T10:13:00.552Z,2.5
2018-02-01T10:14:02.984Z,2.5
2018-02-01T10:15:05.408Z,2.5
2018-02-01T10:16:07.826Z,2.7
2018-02-01T10:17:10.253Z,2.8
2018-02-01T10:18:12.962Z,2.7
2018-02-01T10:19:15.391Z,2.7
2018-02-01T10:20:17.816Z,2.7
2018-02-01T10:21:20.249Z,2.6
2018-02-01T10:22:22.682Z,2.7
2018-02-01T10:23:25.112Z,2.7
2018-02-01T10:24:27.531Z,2.7
2018-02-01T10:25:29.953Z,2.7
2018-02-01T10:26:32.375Z,2.7
2018-02-01T10:27:34.802Z,2.7
2018-02-01T10:28:37.224Z,2.7
2018-02-01T10:29:39.656Z,2.8
2018-02-01T10:30:42.080Z,2.7
2018-02-01T10:31:44.803Z,2.8
2018-02-01T10:32:47.218Z,2.8
2018-02-01T10:33:49.649Z,2.8
2018-02-01T10:34:52.092Z,2.8
2018-02-01T10:35:54.495Z,2.8
2018-02-01T10:36:56.921Z,2.9
2018-02-01T10:37:59.357Z,2.9
2018-02-01T10:39:01.779Z,3
2018-02-01T10:40:04.208Z,2.9
2018-02-01T10:41:06.635Z,3
2018-02-01T10:42:09.057Z,3
2018-02-01T10:43:11.487Z,2.9
2018-02-01T10:44:13.911Z,2.9
2018-02-01T10:45:16.607Z,2.9
2018-02-01T10:46:19.053Z,2.9
2018-02-01T10:47:21.760Z,2.9
2018-02-01T10:48:24.187Z,2.9
2018-02-01T10:49:26.615Z,2.9
2018-02-01T10:50:29.040Z,2.9
2018-02-01T10:51:31.468Z,2.9
2018-02-01T10:52:33.901Z,3
2018-02-01T10:53:36.327Z,3
2018-02-01T10:54:38.746Z,3
2018-02-01T10:55:41.179Z,3.1
2018-02-01T10:56:43.597Z,3.1
2018-02-01T10:57:46.018Z,3.1
2018-02-01T10:58:48.445Z,3
2018-02-01T10:59:51.166Z,3.1
2018-02-01T11:00:53.584Z,3
2018-02-01T11:01:56.019Z,3.1
2018-02-01T11:02:58.440Z,3.1
2018-02-01T11:04:01.166Z,3
2018-02-01T11:05:03.603Z,3.1
2018-02-01T11:06:06.600Z,3.1
2018-02-01T11:07:09.024Z,3.1
2018-02-01T11:08:11.456Z,3.2
2018-02-01T11:09:13.887Z,3.2
2018-02-01T11:10:16.606Z,3.1
2018-02-01T11:11:19.317Z,3.1
2018-02-01T11:12:21.729Z,3.2
2018-02-01T11:13:24.160Z,3.2
2018-02-01T11:14:26.594Z,3.2
2018-02-01T11:15:29.027Z,3.1
2018-02-01T11:16:31.449Z,3.1
2018-02-01T11:17:33.888Z,3.2
2018-02-01T11:18:36.317Z,3.2
2018-02-01T11:19:38.728Z,3.2
2018-02-01T11:20:41.160Z,3.2
2018-02-01T11:21:43.588Z,3.2
2018-02-01T11:22:46.014Z,3.3
2018-02-01T11:23:48.731Z,3.3
2018-02-01T11:24:51.153Z,3.2
2018-02-01T11:25:53.573Z,3.1
2018-02-01T11:26:56.014Z,3.1
2018-02-01T11:27:58.439Z,3.1
2018-02-01T11:29:00.874Z,3.2
2018-02-01T11:30:03.301Z,3.2
2018-02-01T11:31:05.728Z,3.2
2018-02-01T11:32:08.157Z,3.2
2018-02-01T11:33:10.589Z,3.2
2018-02-01T11:34:13.017Z,3.2
2018-02-01T11:35:15.448Z,3.2
2018-02-01T11:36:17.870Z,3.2
2018-02-01T11:37:20.302Z,3.3
2018-02-01T11:38:22.720Z,3.3
2018-02-01T11:39:25.158Z,3.3
2018-02-01T11:40:27.574Z,3.3
2018-02-01T11:41:30.004Z,3.3
2018-02-01T11:42:32.436Z,3.3
2018-02-01T11:43:34.862Z,3.3
2018-02-01T11:44:37.288Z,3.3
2018-02-01T11:45:39.734Z,3.3
2018-02-01T11:46:42.435Z,3.4
2018-02-01T11:47:45.143Z,3.4
2018-02-01T11:48:47.567Z,3.3
2018-02-01T11:49:50.002Z,3.4
2018-02-01T11:50:52.420Z,3.3
2018-02-01T11:51:54.847Z,3.3
2018-02-01T11:52:57.290Z,3.3
2018-02-01T11:53:59.706Z,3.3
2018-02-01T11:55:02.138Z,3.3
2018-02-01T11:56:04.568Z,3.2
2018-02-01T11:57:06.998Z,3.3
2018-02-01T11:58:09.427Z,3.3
2018-02-01T11:59:11.861Z,3.3
2018-02-01T12:00:14.280Z,3.3
2018-02-01T12:01:16.712Z,3.3
2018-02-01T12:02:19.129Z,3.3
2018-02-01T12:03:21.564Z,3.3
2018-02-01T12:04:24.003Z,3.3
2018-02-01T12:05:26.704Z,3.3
2018-02-01T12:06:29.126Z,3.2
2018-02-01T12:07:31.550Z,3.3
2018-02-01T12:08:33.974Z,3.3
2018-02-01T12:09:36.417Z,3.3
2018-02-01T12:10:38.838Z,3.3
2018-02-01T12:11:41.266Z,3.3
2018-02-01T12:12:43.696Z,3.3
2018-02-01T12:13:46.127Z,3.3
2018-02-01T12:14:48.559Z,3.3
2018-02-01T12:15:50.986Z,3.4
2018-02-01T12:16:53.690Z,3.4
2018-02-01T12:17:56.119Z,3.4
2018-02-01T12:18:58.541Z,3.4
2018-02-01T12:20:00.969Z,3.3
2018-02-01T12:21:03.394Z,3.3
2018-02-01T12:22:05.828Z,3.4
2018-02-01T12:23:08.255Z,3.3
2018-02-01T12:24:10.680Z,3.4
2018-02-01T12:25:13.108Z,3.4
2018-02-01T12:26:15.533Z,3.4
2018-02-01T12:27:17.959Z,3.4
2018-02-01T12:28:20.379Z,3.4
2018-02-01T12:29:22.802Z,3.4
2018-02-01T12:30:25.519Z,3.4
2018-02-01T12:31:27.951Z,3.4
2018-02-01T12:32:30.379Z,3.4
2018-02-01T12:33:32.798Z,3.3
2018-02-01T12:34:35.217Z,3.4
2018-02-01T12:35:37.657Z,3.4
2018-02-01T12:36:40.085Z,3.3
2018-02-01T12:37:42.780Z,3.4
2018-02-01T12:38:45.211Z,3.3
2018-02-01T12:39:47.637Z,3.4
2018-02-01T12:40:50.059Z,3.4
2018-02-01T12:41:52.488Z,3.4
2018-02-01T12:42:54.905Z,3.5
2018-02-01T12:43:57.330Z,3.5
2018-02-01T12:44:59.774Z,3.4
2018-02-01T12:46:02.472Z,3.4
2018-02-01T12:47:04.905Z,3.4
2018-02-01T12:48:07.325Z,3.4
2018-02-01T12:49:09.748Z,3.4
2018-02-01T12:50:12.175Z,3.4
2018-02-01T12:51:14.609Z,3.4
2018-02-01T12:52:17.317Z,3.4
2018-02-01T12:53:19.749Z,3.5
2018-02-01T12:54:22.461Z,3.5
2018-02-01T12:55:24.883Z,3.5
2018-02-01T12:56:27.310Z,3.5
2018-02-01T12:57:29.734Z,3.5
2018-02-01T12:58:32.152Z,3.5
2018-02-01T12:59:34.597Z,3.5
2018-02-01T13:00:37.004Z,3.6
2018-02-01T13:01:39.450Z,3.5
2018-02-01T13:02:41.870Z,3.5
2018-02-01T13:03:44.291Z,3.5
2018-02-01T13:04:46.713Z,3.5
2018-02-01T13:05:49.142Z,3.6
2018-02-01T13:06:51.580Z,3.6
2018-02-01T13:07:54.672Z,3.7
2018-02-01T13:08:57.086Z,3.7
2018-02-01T13:09:59.515Z,3.7
2018-02-01T13:11:01.953Z,3.7
2018-02-01T13:12:04.373Z,3.7
2018-02-01T13:13:06.802Z,3.8
2018-02-01T13:14:09.224Z,3.8
2018-02-01T13:15:11.654Z,3.8
2018-02-01T13:16:14.071Z,3.8
2018-02-01T13:17:16.497Z,3.9
2018-02-01T13:18:18.928Z,3.9
2018-02-01T13:19:21.357Z,3.9
2018-02-01T13:20:23.777Z,3.9
2018-02-01T13:21:26.207Z,3.9
2018-02-01T13:22:28.630Z,3.9
2018-02-01T13:23:31.354Z,4
2018-02-01T13:24:33.776Z,4
2018-02-01T13:25:36.195Z,4
2018-02-01T13:26:38.920Z,4
2018-02-01T13:27:41.345Z,4
2018-02-01T13:28:43.780Z,4
2018-02-01T13:29:46.199Z,4
2018-02-01T13:30:49.198Z,4.1
2018-02-01T13:31:51.621Z,4
2018-02-01T13:32:54.057Z,4
2018-02-01T13:33:56.484Z,4
2018-02-01T13:34:59.196Z,4
2018-02-01T13:36:01.636Z,4
2018-02-01T13:37:04.062Z,4
2018-02-01T13:38:06.490Z,4
2018-02-01T13:39:08.917Z,4.1
2018-02-01T13:40:11.340Z,4
2018-02-01T13:41:14.062Z,4
2018-02-01T13:42:16.503Z,4
2018-02-01T13:43:19.205Z,4
2018-02-01T13:44:21.628Z,4.1
2018-02-01T13:45:24.353Z,4.1
2018-02-01T13:46:26.775Z,4.1
2018-02-01T13:47:29.200Z,4.2
2018-02-01T13:48:31.635Z,4.2
2018-02-01T13:49:34.072Z,4.3
2018-02-01T13:50:36.497Z,4.3
2018-02-01T13:51:39.210Z,4.4
2018-02-01T13:52:41.632Z,4.4
2018-02-01T13:53:44.062Z,4.4
2018-02-01T13:54:46.768Z,4.4
2018-02-01T13:55:49.477Z,4.5
2018-02-01T13:56:51.888Z,4.4
2018-02-01T13:57:54.320Z,4.5
2018-02-01T13:58:57.044Z,4.5
2018-02-01T13:59:59.471Z,4.6
2018-02-01T14:01:02.187Z,4.5
2018-02-01T14:02:04.626Z,4.4
2018-02-01T14:03:07.060Z,4.4
2018-02-01T14:04:09.485Z,4.4
2018-02-01T14:05:12.198Z,4.4
2018-02-01T14:06:14.617Z,4.3
2018-02-01T14:07:17.050Z,4.3
2018-02-01T14:08:19.479Z,4.3
2018-02-01T14:09:21.901Z,4.2
2018-02-01T14:10:24.324Z,4.4
2018-02-01T14:11:26.749Z,4.3
2018-02-01T14:12:29.178Z,4.3
2018-02-01T14:13:31.608Z,4.3
2018-02-01T14:14:34.046Z,4.2
2018-02-01T14:15:36.464Z,4.2
2018-02-01T14:16:38.895Z,4.2
2018-02-01T14:17:41.329Z,4.2
2018-02-01T14:18:43.759Z,4.2
2018-02-01T14:19:46.468Z,4.2
2018-02-01T14:20:48.901Z,4.2
2018-02-01T14:21:51.313Z,4.2
2018-02-01T14:22:53.759Z,4.1
2018-02-01T14:23:56.185Z,4.1